Airfield :
LOGIN :

Register | Disclaimer

   EN    FR    IT 

 










Legend :    VFR   Marginal VFR   IFR   Intensive IFR   Very Intensive IFR
Visi :
Ceiling :
>= 8 km
>= 3000ft
5 to 8 km
1000 to 3000 ft
1500m to 5 km
500 to 1000 ft
800 to 1500m
200 to 500 ft
< 800m
< 200 ft
Symbols :   Thunderstorms  Fog  Heavy snow  Heavy precipitations  Wind > 20 kt
SIGMETs :     Misc.  Thunderstorms  Icing  Turbulence  Mountain Waves  Volcanic Ashes







- Airport Elevation : 1187 ft


LIBV - Gioia del Colle Bari

CURRENT METAR :
  • 260855Z 34009KT 310V030 9999 FEW030 28/19 Q//// RMK FEW VIS MIN 9999 WIND THR32 02012KT WIND THR14 35009KT BLU

EXPIRED METARs :
  • 260755Z 34008KT 300V020 CAVOK 26/19 Q//// RMK SKC VIS MIN 9999 WIND THR32 36010KT WIND THR14 35009KT BLU
  • 260655Z 35010KT CAVOK 25/19 Q//// RMK SKC VIS MIN 9999 WIND THR32 34013KT WIND THR14 34012KT BLU

TAF TAF LIBV
Valid from the 26 at 09:00 until the 26 at 18:00 UTC


260800Z 2609/2618 35015KT CAVOK
TEMPO 2609/2614 36015G25KT 9999 SCT030
No reported NOTAMs for that airfield.



MET'MAP, your aeronautical weather chart ! - Copyright ORBIFLY December 2007 - Disclaimer

ORBIFLY MET'MAP TEAM :

Programming & Development : Alexandra Zaïnal
Concept & Development : Baudouin d'Aumeries
Co-Development & Prog : Marc-Olivier Méhu
Technical & hardware support : Manuel Goepfert

Contact : metmap@orbifly.com




SOURCES & CREDITS :

   NOAA